Index of /manuals/Inspection Programs/CAMP RW/CAMP/Rev 1/Section A/

NameLast ModifiedSize
UpParent Directory
DirectoryArchive2023-06-21 17:50-
File301 pg 4.pdf2023-06-21 17:49 104k
File305 pg 1.pdf2023-06-21 17:49 102k
File412-MM-CH05 - 25 hr - 30 Day.pdf2023-06-21 17:49 2597k
File412-MM-CH05 300 hr - 12 Mon.pdf2023-06-21 17:49 178k
File412-MM-CH05 5000 hr - 60 Mon.pdf2023-06-21 17:49 156k
File412-MM-CHP05 - 25 hr - 30 Day.pdf2023-06-21 17:49 289k
FileA0025 25 hr - 30 Day pg4.pdf2023-06-21 17:49 101k
FileA0025 25 hr - 30 Day.docx2023-06-21 17:49 74k
FileA0120 100 hr - 120 Day.docx2023-06-21 17:49 35k
FileA0301 300 hr - 12 Mon.docx2023-06-21 17:49 39k
FileA0302 300 hr - 12 Mon.docx2023-06-21 17:49 41k
FileA0303 300 hr - 12 Mon.docx2023-06-21 17:49 36k
FileA0304 300 hr - 12 Mon.docx2023-06-21 17:49 37k
FileA0305 300 hr - 12 Mon.docx2023-06-21 17:49 35k
FileA0306 300 hr - 12 Mon.docx2023-06-21 17:49 39k
FileA0601 600 hr - 12 Mon.docx2023-06-21 17:49 32k
FileA0602 600 hr - 12 Mon.docx2023-06-21 17:49 31k
FileA0603 600 hr - 12 Mon.docx2023-06-21 17:49 32k
FileA0604 600 hr - 12 Mon.docx2023-06-21 17:49 31k
FileA0605 600 hr - 12 Mon.docx2023-06-21 17:49 32k
FileA0606 600 hr - 12 Mon.docx2023-06-21 17:49 31k
FileA306 Pg 3.pdf2023-06-21 17:49 104k
FileA5005 5000 hr - 60 Mon.docx2023-06-21 17:49 259k
FileAirframe Templete.docx2023-06-21 17:49 31k
FileBell 412 Daily airworthness check.docx2023-06-21 17:49 20k
FileBHT - 412-MM-CH12 Lubrication Charts.pdf2023-06-21 17:50 569k
File~$025 25 hr - 30 Day.docx2023-06-21 17:50 1k
Proudly Served by LiteSpeed Web Server at mhi.rotor-apps.com Port 443